Time;durP1;ratioP1;P1;durP2;ratioP2;P2;SDS_P1;SDS_P2;PMS_P1;PMS_P2;Temp;Humidity;BMP_temperature;BMP_pressure;BME280_temperature;BME280_humidity;BME280_pressure;Samples;Min_cycle;Max_cycle;Signal;HPM_P1;HPM_P2
2022/03/05 00:01:14;;;;;;;15.50;12.83;;;-0.80;99.90;;;-0.07;66.24;98147.44;5204209;28;20245;-59
2022/03/05 00:03:47;;;;;;;16.43;13.00;;;-0.80;99.90;;;-0.05;67.59;98149.38;5203950;28;20221;-58
2022/03/05 00:06:22;;;;;;;16.03;13.80;;;-0.90;99.90;;;-0.13;66.60;98147.69;5203232;28;20206;-58
2022/03/05 00:08:55;;;;;;;16.37;13.30;;;-0.90;99.90;;;-0.14;67.41;98150.94;5202334;28;20688;-58
2022/03/05 00:11:28;;;;;;;15.60;13.03;;;-1.00;99.90;;;-0.15;67.25;98146.66;5203759;28;20249;-58
2022/03/05 00:14:01;;;;;;;16.33;13.07;;;-1.00;99.90;;;-0.19;67.40;98147.06;5204037;28;20198;-58
2022/03/05 00:16:34;;;;;;;14.60;12.17;;;-0.90;99.90;;;-0.27;66.97;98152.94;5203808;28;20202;-59
2022/03/05 00:19:07;;;;;;;17.47;13.17;;;-1.00;99.90;;;-0.26;68.20;98149.66;5203608;28;20233;-58
2022/03/05 00:21:42;;;;;;;17.93;13.07;;;-1.00;99.90;;;-0.29;69.29;98147.72;5202724;28;20586;-58
2022/03/05 00:24:15;;;;;;;17.30;13.20;;;-1.00;99.90;;;-0.27;67.94;98145.41;5203685;28;20249;-58
2022/03/05 00:26:48;;;;;;;16.57;13.80;;;-1.10;99.90;;;-0.33;68.42;98149.78;5200546;28;20205;-57
2022/03/05 00:29:21;;;;;;;17.20;13.50;;;-1.20;99.90;;;-0.36;70.04;98154.50;5203882;28;20222;-59
2022/03/05 00:31:54;;;;;;;18.17;14.13;;;-1.20;99.90;;;-0.41;69.51;98158.16;5203491;28;20194;-59
2022/03/05 00:34:28;;;;;;;17.37;14.00;;;-1.30;99.90;;;-0.48;70.77;98142.47;5203988;28;20233;-59
2022/03/05 00:37:05;;;;;;;17.80;13.47;;;-1.40;99.90;;;-0.54;71.12;98154.38;5203559;28;20198;-59
2022/03/05 00:39:38;;;;;;;17.97;14.53;;;-1.40;99.90;;;-0.67;71.50;98146.28;5205170;28;20194;-58
2022/03/05 00:42:11;;;;;;;15.67;13.70;;;-1.40;99.90;;;-0.61;71.42;98158.59;5204529;28;20198;-58
2022/03/05 00:44:45;;;;;;;17.27;14.33;;;-1.40;99.90;;;-0.64;70.41;98153.25;5204706;28;20218;-58
2022/03/05 00:47:21;;;;;;;18.13;14.43;;;-1.50;99.90;;;-0.72;71.37;98149.94;5203468;28;20225;-59
2022/03/05 00:49:54;;;;;;;15.10;13.50;;;-1.50;99.90;;;-0.76;70.43;98153.75;5204741;28;20210;-58
2022/03/05 00:52:28;;;;;;;16.30;14.50;;;-1.60;99.90;;;-0.72;70.22;98155.84;5203969;28;20227;-58
2022/03/05 00:55:02;;;;;;;18.13;13.57;;;-1.60;99.90;;;-0.78;71.54;98152.69;5204968;28;20225;-58
2022/03/05 00:57:35;;;;;;;17.40;14.10;;;-1.60;99.90;;;-0.89;70.95;98149.78;5205561;28;20698;-57
2022/03/05 01:00:11;;;;;;;17.17;14.10;;;-1.70;99.90;;;-0.86;71.21;98145.09;5204483;28;20293;-57
2022/03/05 01:02:44;;;;;;;16.93;13.50;;;-1.70;99.90;;;-0.90;71.46;98143.88;5201565;28;20201;-59
2022/03/05 01:05:18;;;;;;;16.97;13.03;;;-1.70;99.90;;;-0.87;71.60;98143.31;5203382;28;20225;-59
2022/03/05 01:07:52;;;;;;;17.10;14.33;;;-1.70;99.90;;;-0.88;71.08;98146.56;5200480;28;20225;-57
2022/03/05 01:10:25;;;;;;;17.57;13.80;;;-1.70;99.90;;;-0.88;72.19;98151.59;5203671;28;20205;-58
2022/03/05 01:12:58;;;;;;;14.80;13.23;;;-1.70;99.90;;;-0.89;72.13;98149.78;5202972;28;20202;-59
2022/03/05 01:15:32;;;;;;;17.53;14.03;;;-1.70;99.90;;;-1.00;72.08;98151.16;5204071;28;20198;-58
2022/03/05 01:18:05;;;;;;;16.73;13.17;;;-1.80;99.90;;;-1.02;70.90;98148.50;5203909;28;20525;-58
2022/03/05 01:20:38;;;;;;;14.60;12.87;;;-1.80;99.90;;;-0.98;72.08;98154.72;5205030;28;20674;-59
2022/03/05 01:23:14;;;;;;;15.23;13.17;;;-1.80;99.90;;;-0.97;72.63;98149.88;5202830;28;20198;-59
2022/03/05 01:25:47;;;;;;;17.23;13.07;;;-1.80;99.90;;;-1.03;72.34;98141.72;5204274;28;20198;-58
2022/03/05 01:28:20;;;;;;;16.27;12.73;;;-1.80;99.90;;;-1.11;72.21;98142.53;5203639;28;20226;-58
2022/03/05 01:30:53;;;;;;;13.73;12.20;;;-1.90;99.90;;;-1.11;73.42;98136.63;5206888;28;20202;-58
2022/03/05 01:33:26;;;;;;;15.80;12.57;;;-1.90;99.90;;;-1.17;72.71;98140.25;5205548;28;20206;-59
2022/03/05 01:36:00;;;;;;;14.37;12.50;;;-1.90;99.90;;;-1.17;72.65;98136.84;5207828;28;20571;-58
2022/03/05 01:38:34;;;;;;;16.87;12.27;;;-1.90;99.90;;;-1.22;73.47;98133.84;5208050;28;20412;-58
2022/03/05 01:41:07;;;;;;;14.37;11.87;;;-2.00;99.90;;;-1.27;72.61;98129.06;5208261;28;20224;-58
2022/03/05 01:43:41;;;;;;;14.17;12.27;;;-2.00;99.90;;;-1.25;72.26;98136.03;5203813;28;20202;-55
2022/03/05 01:46:14;;;;;;;14.33;11.63;;;-2.10;99.90;;;-1.25;72.12;98135.16;5207128;28;20205;-57
2022/03/05 01:48:47;;;;;;;16.30;13.23;;;-2.00;99.90;;;-1.34;73.06;98136.66;5207860;28;20233;-58
2022/03/05 01:51:20;;;;;;;14.10;12.17;;;-2.10;99.90;;;-1.41;72.73;98136.00;5207928;28;20553;-57
2022/03/05 01:53:54;;;;;;;16.43;13.60;;;-2.20;99.90;;;-1.48;74.00;98132.69;5208306;28;20212;-58
2022/03/05 01:56:29;;;;;;;14.27;12.33;;;-2.30;99.90;;;-1.44;73.18;98139.81;5207140;28;20460;-58
2022/03/05 01:59:02;;;;;;;14.87;12.17;;;-2.30;99.90;;;-1.47;72.96;98136.97;5207264;28;20221;-57
2022/03/05 02:01:36;;;;;;;14.87;12.43;;;-2.20;99.90;;;-1.51;72.97;98133.25;5206984;28;20687;-59
2022/03/05 02:04:09;;;;;;;16.23;12.83;;;-2.30;99.90;;;-1.49;74.03;98131.78;5206191;28;20271;-57
2022/03/05 02:06:42;;;;;;;14.33;12.33;;;-2.30;99.90;;;-1.58;72.71;98125.78;5206482;28;20194;-58
2022/03/05 02:09:16;;;;;;;14.77;13.07;;;-2.30;99.90;;;-1.52;72.89;98125.56;5206382;28;20240;-58
2022/03/05 02:11:50;;;;;;;17.10;13.33;;;-2.30;99.90;;;-1.60;73.22;98133.16;5206106;28;20197;-59
2022/03/05 02:14:23;;;;;;;16.80;12.80;;;-2.40;99.90;;;-1.60;73.51;98134.78;5205666;28;20201;-59
2022/03/05 02:16:57;;;;;;;15.30;12.47;;;-2.40;99.90;;;-1.54;73.27;98137.94;5204347;28;20233;-59
2022/03/05 02:19:30;;;;;;;13.47;11.83;;;-2.40;99.90;;;-1.57;73.06;98135.13;5206889;28;20589;-59
2022/03/05 02:22:06;;;;;;;15.93;11.97;;;-2.40;99.90;;;-1.55;73.09;98136.13;5206696;28;20198;-57
2022/03/05 02:24:39;;;;;;;14.97;12.50;;;-2.40;99.90;;;-1.66;72.56;98132.50;5205836;28;20221;-59
2022/03/05 02:27:13;;;;;;;13.23;11.50;;;-2.50;99.90;;;-1.66;72.77;98132.50;5206237;28;20210;-58
2022/03/05 02:29:46;;;;;;;14.30;11.67;;;-2.40;99.90;;;-1.66;73.42;98139.09;5205713;28;20198;-59
2022/03/05 02:32:20;;;;;;;14.37;11.70;;;-2.50;99.90;;;-1.70;72.83;98139.50;5204965;28;20295;-57
2022/03/05 02:34:53;;;;;;;15.47;11.77;;;-2.50;99.90;;;-1.72;73.89;98143.47;5206940;28;20193;-58
2022/03/05 02:37:28;;;;;;;15.60;13.00;;;-2.40;99.90;;;-1.81;73.79;98139.22;5205615;28;20701;-59
2022/03/05 02:40:01;;;;;;;16.60;12.73;;;-2.60;99.90;;;-1.78;73.88;98136.16;5205698;28;20641;-58
2022/03/05 02:42:34;;;;;;;17.90;13.87;;;-2.50;99.90;;;-1.75;73.48;98133.09;5205150;28;20205;-59
2022/03/05 02:45:08;;;;;;;16.97;13.47;;;-2.50;99.90;;;-1.76;73.27;98133.84;5206497;28;20222;-58
2022/03/05 02:47:41;;;;;;;14.90;12.33;;;-2.50;99.90;;;-1.76;73.39;98144.75;5205349;28;20213;-58
2022/03/05 02:50:14;;;;;;;15.30;12.07;;;-2.50;99.90;;;-1.79;73.05;98138.53;5206238;28;20569;-60
2022/03/05 02:52:48;;;;;;;16.23;12.97;;;-2.60;99.90;;;-1.78;74.98;98147.81;5202893;28;20213;-59
2022/03/05 02:55:22;;;;;;;13.83;11.83;;;-2.60;99.90;;;-1.85;74.32;98148.78;5205972;28;20586;-59
2022/03/05 02:57:55;;;;;;;15.97;12.00;;;-2.60;99.90;;;-1.90;73.77;98140.75;5206160;28;20239;-59
2022/03/05 03:00:28;;;;;;;15.23;12.00;;;-2.60;99.90;;;-1.83;74.78;98144.84;5205770;28;20564;-59
2022/03/05 03:03:02;;;;;;;15.97;12.47;;;-2.60;99.90;;;-1.83;72.97;98148.22;5202904;28;20226;-59
2022/03/05 03:05:35;;;;;;;16.67;12.57;;;-2.70;99.90;;;-1.91;74.48;98145.59;5206157;28;20276;-59
2022/03/05 03:08:09;;;;;;;15.57;12.03;;;-2.70;99.90;;;-1.90;74.51;98150.75;5206578;28;20807;-56
2022/03/05 03:10:43;;;;;;;15.93;12.40;;;-2.70;99.90;;;-1.85;73.52;98151.28;5206019;28;20197;-57
2022/03/05 03:13:16;;;;;;;13.03;11.57;;;-2.70;99.90;;;-1.90;74.14;98148.25;5206158;28;20206;-57
2022/03/05 03:15:49;;;;;;;12.53;11.20;;;-2.80;99.90;;;-1.96;73.94;98150.09;5203217;28;20194;-58
2022/03/05 03:18:22;;;;;;;14.07;10.70;;;-2.80;99.90;;;-2.00;73.77;98142.06;5206661;28;20228;-57
2022/03/05 03:20:55;;;;;;;17.23;13.37;;;-2.80;99.90;;;-1.95;73.85;98145.97;5205554;28;20248;-59
2022/03/05 03:23:29;;;;;;;22.03;18.03;;;-2.80;99.90;;;-2.05;74.68;98149.09;5205501;28;20208;-58
2022/03/05 03:26:03;;;;;;;20.17;16.03;;;-2.80;99.90;;;-2.06;75.04;98149.81;5204394;28;20217;-57
2022/03/05 03:28:36;;;;;;;17.23;14.13;;;-2.90;99.90;;;-2.03;74.79;98150.16;5206052;28;20780;-58
2022/03/05 03:31:09;;;;;;;18.70;14.07;;;-2.90;99.90;;;-2.08;75.22;98148.78;5205990;28;20194;-58
2022/03/05 03:33:42;;;;;;;15.40;13.47;;;-2.90;99.90;;;-2.21;75.16;98135.63;5205382;28;20190;-57
2022/03/05 03:36:15;;;;;;;17.50;14.70;;;-3.00;99.90;;;-2.23;76.43;98142.97;5205899;28;20209;-59
2022/03/05 03:38:49;;;;;;;18.03;14.53;;;-3.00;99.90;;;-2.23;75.65;98152.06;5203316;28;20224;-58
2022/03/05 03:41:22;;;;;;;17.17;12.83;;;-3.00;99.90;;;-2.21;75.17;98151.53;5204344;28;20573;-58
2022/03/05 03:43:55;;;;;;;16.10;12.80;;;-3.00;99.90;;;-2.21;75.03;98144.00;5205054;28;20566;-54
2022/03/05 03:46:29;;;;;;;16.47;13.07;;;-3.00;99.90;;;-2.29;74.81;98142.28;5204708;28;20230;-56
2022/03/05 03:49:02;;;;;;;15.97;13.17;;;-3.00;99.90;;;-2.32;74.60;98137.84;5203287;28;20220;-58
2022/03/05 03:51:35;;;;;;;16.60;13.33;;;-3.10;99.90;;;-2.27;75.67;98140.84;5203866;28;20206;-54
2022/03/05 03:54:10;;;;;;;15.07;12.40;;;-3.00;99.90;;;-2.24;75.45;98140.28;5203813;28;20204;-57
2022/03/05 03:56:43;;;;;;;13.53;11.63;;;-3.00;99.90;;;-2.29;76.05;98138.19;5203982;28;20197;-57
2022/03/05 03:59:16;;;;;;;15.60;12.47;;;-3.10;99.90;;;-2.30;75.57;98143.88;5204222;28;20228;-55
2022/03/05 04:01:49;;;;;;;16.37;12.93;;;-3.10;99.90;;;-2.34;74.91;98141.78;5203649;28;20654;-59
2022/03/05 04:04:23;;;;;;;14.77;12.43;;;-3.20;99.90;;;-2.35;75.49;98147.50;5204006;28;20297;-58
2022/03/05 04:09:48;;;;;;;14.60;12.10;;;-3.30;99.90;;;-2.49;75.27;98142.56;5203722;28;20202;-59
2022/03/05 04:12:21;;;;;;;15.80;11.60;;;-3.30;99.90;;;-2.46;75.73;98147.94;5204041;28;20456;-58
2022/03/05 04:14:54;;;;;;;15.77;12.27;;;-3.30;99.90;;;-2.21;75.28;98145.63;5204070;28;20208;-59
2022/03/05 04:17:27;;;;;;;15.03;12.20;;;-3.20;99.90;;;-2.13;75.15;98148.25;5204097;28;20232;-59
2022/03/05 04:20:00;;;;;;;15.60;12.03;;;-3.10;99.90;;;-2.06;74.44;98150.72;5202579;28;20206;-58
2022/03/05 04:22:33;;;;;;;15.83;12.10;;;-3.00;99.90;;;-2.05;73.93;98154.09;5204181;28;20202;-59
2022/03/05 04:25:09;;;;;;;15.40;12.43;;;-3.10;99.90;;;-2.17;74.01;98158.66;5203705;28;20221;-58
2022/03/05 04:27:42;;;;;;;16.03;12.20;;;-3.10;99.90;;;-2.24;74.68;98158.69;5203698;28;20221;-59
2022/03/05 04:30:16;;;;;;;16.63;13.30;;;-3.10;99.90;;;-2.41;74.83;98150.94;5203314;28;20202;-58
2022/03/05 04:32:49;;;;;;;19.27;13.67;;;-3.20;99.90;;;-2.44;75.95;98155.59;5200686;28;20221;-58
2022/03/05 04:35:22;;;;;;;18.43;13.53;;;-3.20;99.90;;;-2.38;74.78;98164.66;5203380;28;20193;-58
2022/03/05 04:37:55;;;;;;;17.73;13.40;;;-3.20;99.90;;;-2.49;74.47;98165.09;5203815;28;20252;-57
2022/03/05 04:40:29;;;;;;;19.53;12.67;;;-3.30;99.90;;;-2.49;75.43;98165.09;5204123;28;20556;-58
2022/03/05 04:43:03;;;;;;;17.73;13.90;;;-3.20;99.90;;;-2.56;75.40;98162.63;5202857;28;20219;-59
2022/03/05 04:45:36;;;;;;;16.77;14.03;;;-3.30;99.90;;;-2.56;75.96;98162.63;5204208;28;20221;-57
2022/03/05 04:48:09;;;;;;;18.77;13.47;;;-3.30;99.90;;;-2.54;75.77;98161.22;5202941;28;20235;-57
2022/03/05 04:50:45;;;;;;;17.57;12.93;;;-3.30;99.90;;;-2.62;77.53;98166.97;5204023;28;20653;-58
2022/03/05 04:53:19;;;;;;;17.47;12.67;;;-3.30;99.90;;;-2.69;77.27;98161.97;5203773;28;20201;-58
2022/03/05 04:55:54;;;;;;;16.63;12.80;;;-3.30;99.90;;;-2.65;76.34;98156.63;5204156;28;20191;-56
2022/03/05 04:58:27;;;;;;;17.00;12.73;;;-3.30;99.90;;;-2.65;76.73;98166.63;5203945;28;20683;-56
2022/03/05 05:01:01;;;;;;;16.87;13.30;;;-3.40;99.90;;;-2.58;75.79;98164.06;5203186;28;20292;-58
2022/03/05 05:03:35;;;;;;;14.30;11.87;;;-3.40;99.90;;;-2.73;75.89;98166.63;5202975;28;20603;-58
2022/03/05 05:06:08;;;;;;;16.83;12.50;;;-3.50;99.90;;;-2.77;76.19;98174.53;5207386;28;20226;-56
2022/03/05 05:08:41;;;;;;;18.10;12.80;;;-3.60;99.90;;;-2.87;76.62;98180.81;5207636;28;20250;-57
2022/03/05 05:11:16;;;;;;;17.33;13.47;;;-3.60;99.90;;;-2.94;76.98;98174.25;5207152;28;20201;-58
2022/03/05 05:13:49;;;;;;;18.97;13.67;;;-3.60;99.90;;;-2.90;77.05;98178.84;5207908;28;20204;-57
2022/03/05 05:16:22;;;;;;;15.53;12.97;;;-3.60;99.90;;;-2.88;77.44;98177.44;5206084;28;20201;-58
2022/03/05 05:21:45;;;;;;;17.23;12.80;;;-3.50;99.90;;;-2.80;76.70;98174.19;5206070;28;20590;-57
2022/03/05 05:24:20;;;;;;;15.73;11.93;;;-3.50;99.90;;;-2.89;76.72;98182.25;5207189;28;20285;-57
2022/03/05 05:26:54;;;;;;;19.37;13.33;;;-3.60;99.90;;;-2.87;77.50;98176.69;5206491;28;20218;-58
2022/03/05 05:29:28;;;;;;;17.57;13.90;;;-3.50;99.90;;;-2.86;76.67;98182.59;5207711;28;20242;-58
2022/03/05 05:32:17;;;;;;;16.83;13.77;;;-3.50;99.90;;;-2.74;77.61;98189.00;5206513;28;20190;-58
2022/03/05 05:34:50;;;;;;;16.37;13.10;;;-3.40;99.90;;;-2.64;77.05;98185.91;5207555;28;20221;-58
2022/03/05 05:37:24;;;;;;;15.80;12.67;;;-3.50;99.90;;;-2.68;77.66;98188.78;5205423;28;20239;-58
2022/03/05 05:39:57;;;;;;;15.63;11.80;;;-3.50;99.90;;;-2.70;77.05;98183.59;5206775;28;20204;-59
2022/03/05 05:42:32;;;;;;;17.27;13.60;;;-3.50;99.90;;;-2.80;77.16;98191.69;5201562;28;20564;-58
2022/03/05 05:45:06;;;;;;;18.40;13.03;;;-3.50;99.90;;;-2.87;77.14;98190.81;5211390;28;20566;-58
2022/03/05 05:47:39;;;;;;;17.93;12.77;;;-3.60;99.90;;;-2.92;77.78;98190.28;5205303;28;20234;-57
2022/03/05 05:50:12;;;;;;;18.13;13.53;;;-3.60;99.90;;;-2.89;77.59;98195.66;5206647;28;20199;-58
2022/03/05 05:52:45;;;;;;;17.23;13.43;;;-3.60;99.90;;;-2.84;76.92;98199.53;5206514;28;20204;-59
2022/03/05 05:55:18;;;;;;;17.53;13.43;;;-3.60;99.90;;;-2.86;77.39;98206.00;5206620;28;20704;-57
2022/03/05 05:57:53;;;;;;;15.63;13.03;;;-3.60;99.90;;;-2.87;77.65;98201.69;5207735;28;20223;-56
2022/03/05 06:00:26;;;;;;;17.97;13.40;;;-3.60;99.90;;;-2.91;77.30;98199.59;5207703;28;20560;-57
2022/03/05 06:02:59;;;;;;;20.37;14.43;;;-3.60;99.90;;;-2.92;78.10;98201.91;5207227;28;20731;-58
2022/03/05 06:05:32;;;;;;;19.60;13.37;;;-3.60;99.90;;;-2.91;77.64;98203.69;5208196;28;20588;-57
2022/03/05 06:08:06;;;;;;;20.30;14.13;;;-3.60;99.90;;;-2.83;77.58;98218.84;5207239;28;20218;-58
2022/03/05 06:10:39;;;;;;;20.63;14.57;;;-3.60;99.90;;;-2.85;77.73;98210.28;5207689;28;20654;-58
2022/03/05 06:13:13;;;;;;;18.97;13.57;;;-3.60;99.90;;;-2.84;77.86;98211.16;5208250;28;20206;-57
2022/03/05 06:15:46;;;;;;;21.03;13.53;;;-3.60;99.90;;;-2.83;77.91;98211.34;5207802;28;20209;-58
2022/03/05 06:18:19;;;;;;;19.07;14.30;;;-3.60;99.90;;;-2.79;77.87;98215.97;5207039;28;20221;-57
2022/03/05 06:20:54;;;;;;;19.10;13.17;;;-3.50;99.90;;;-2.75;77.53;98215.63;5206842;28;20239;-57
2022/03/05 06:23:30;;;;;;;18.97;14.53;;;-3.50;99.90;;;-2.68;76.87;98213.81;5207201;28;20539;-58
2022/03/05 06:26:04;;;;;;;19.57;14.23;;;-3.50;99.90;;;-2.53;77.02;98223.03;5205475;28;20202;-59
2022/03/05 06:28:38;;;;;;;18.50;13.77;;;-3.40;99.90;;;-2.22;75.70;98224.84;5202264;28;20210;-58
2022/03/05 06:31:11;;;;;;;17.87;13.27;;;-3.20;99.90;;;-1.98;75.38;98236.69;5200953;28;20209;-58
2022/03/05 06:33:44;;;;;;;22.83;14.70;;;-3.00;99.90;;;-1.79;75.36;98236.22;5203164;28;20211;-57
2022/03/05 06:36:17;;;;;;;16.90;13.67;;;-2.80;99.90;;;-1.63;75.42;98233.06;5205620;28;20558;-57
2022/03/05 06:38:50;;;;;;;18.83;14.20;;;-2.70;99.90;;;-1.46;73.38;98237.41;5206303;28;20233;-56
2022/03/05 06:41:24;;;;;;;18.63;14.07;;;-2.60;99.90;;;-1.34;74.62;98240.34;5205773;28;20198;-57
2022/03/05 06:43:58;;;;;;;20.57;15.37;;;-2.40;99.90;;;-1.14;73.76;98240.88;5208114;28;20581;-55
2022/03/05 06:46:31;;;;;;;25.37;17.53;;;-2.20;99.90;;;-0.99;73.62;98245.75;5205529;28;20499;-58
2022/03/05 06:49:04;;;;;;;27.73;19.23;;;-2.00;99.90;;;-0.55;72.16;98242.94;5204477;28;20222;-58
2022/03/05 06:51:37;;;;;;;23.60;17.90;;;-1.80;99.90;;;-0.04;71.01;98244.09;5202202;28;20198;-58
2022/03/05 06:54:10;;;;;;;25.23;17.30;;;-1.50;99.90;;;0.24;69.82;98248.56;5200865;28;20580;-58
2022/03/05 06:56:44;;;;;;;23.40;18.30;;;-1.20;99.90;;;0.43;68.75;98244.69;5204548;28;20207;-56
2022/03/05 06:59:19;;;;;;;23.33;17.90;;;-1.00;99.90;;;0.54;69.29;98245.75;5199484;28;20222;-58
2022/03/05 07:01:52;;;;;;;22.37;19.30;;;-0.70;99.90;;;0.62;68.02;98242.41;5203807;28;20193;-56
2022/03/05 07:04:25;;;;;;;23.60;18.43;;;-0.60;99.90;;;0.72;67.56;98250.16;5202775;28;20295;-58
2022/03/05 07:06:58;;;;;;;20.90;16.73;;;-0.40;99.90;;;0.82;66.70;98241.91;5203866;28;20694;-56
2022/03/05 07:09:32;;;;;;;26.27;19.50;;;-0.30;99.90;;;1.12;67.26;98244.09;5199085;28;20238;-57
2022/03/05 07:12:06;;;;;;;24.20;19.53;;;0.00;99.90;;;1.27;67.23;98245.59;5203167;28;20198;-56
2022/03/05 07:14:44;;;;;;;30.80;20.43;;;0.20;99.90;;;1.54;65.78;98241.47;5203838;28;20215;-57
2022/03/05 07:17:18;;;;;;;32.27;20.37;;;0.40;99.90;;;1.72;65.26;98248.31;5203818;28;20208;-57
2022/03/05 07:19:52;;;;;;;30.90;21.17;;;0.50;99.90;;;1.83;64.13;98246.81;5203144;28;20204;-58
2022/03/05 07:22:25;;;;;;;26.27;19.57;;;0.70;99.90;;;1.97;64.82;98246.50;5203445;28;20203;-58
2022/03/05 07:24:58;;;;;;;27.00;19.63;;;0.80;99.90;;;2.15;63.85;98242.34;5202361;28;20717;-57
2022/03/05 07:27:31;;;;;;;22.33;18.10;;;1.00;99.90;;;2.44;63.22;98241.69;5202621;28;20222;-56
2022/03/05 07:30:08;;;;;;;20.47;16.97;;;1.30;99.90;;;2.64;63.01;98241.94;5203549;28;20216;-59
2022/03/05 07:32:41;;;;;;;22.87;17.33;;;1.50;99.90;;;2.86;61.92;98233.81;5199199;28;20292;-58
2022/03/05 07:35:14;;;;;;;19.97;17.50;;;1.80;99.90;;;3.03;61.57;98238.78;5202796;28;20208;-58
2022/03/05 07:37:47;;;;;;;21.27;17.33;;;2.00;99.90;;;3.23;61.27;98242.25;5203413;28;20220;-58
2022/03/05 07:40:23;;;;;;;20.23;16.67;;;2.20;99.90;;;3.17;60.25;98230.81;5202402;28;20300;-59
2022/03/05 07:42:56;;;;;;;21.67;17.53;;;2.20;99.00;;;3.38;59.68;98238.59;5203022;28;20210;-58
2022/03/05 07:45:30;;;;;;;21.43;17.60;;;2.30;99.40;;;3.63;58.41;98235.75;5201319;28;20202;-59
2022/03/05 07:48:04;;;;;;;19.53;17.33;;;2.60;98.70;;;3.70;58.08;98238.09;5204058;28;20239;-59
2022/03/05 07:50:38;;;;;;;18.90;16.57;;;2.70;98.40;;;3.76;58.65;98239.50;5192383;28;20203;-59
2022/03/05 07:53:11;;;;;;;20.73;16.77;;;2.80;97.40;;;3.84;57.27;98247.78;5202031;28;20197;-59
2022/03/05 07:55:44;;;;;;;20.43;16.43;;;2.80;97.10;;;3.90;56.90;98238.22;5201344;28;20198;-58
2022/03/05 07:58:17;;;;;;;19.73;17.10;;;3.10;96.90;;;4.13;56.25;98242.78;5201682;28;20623;-59
2022/03/05 08:00:51;;;;;;;21.83;17.30;;;3.30;96.40;;;4.04;56.44;98240.31;5202696;28;20733;-59
2022/03/05 08:03:24;;;;;;;21.60;17.23;;;3.30;96.40;;;4.18;56.76;98240.66;5201962;28;20201;-58
2022/03/05 08:05:57;;;;;;;21.37;17.83;;;3.20;96.80;;;4.36;55.93;98246.44;5200815;28;20200;-58
2022/03/05 08:08:31;;;;;;;21.10;17.07;;;3.40;96.10;;;4.24;55.66;98251.31;5197515;28;20665;-58
2022/03/05 08:11:04;;;;;;;21.03;18.40;;;3.40;96.30;;;4.36;56.54;98249.84;5199412;28;20565;-59
2022/03/05 08:13:37;;;;;;;23.07;18.37;;;3.50;96.50;;;4.40;56.77;98249.34;5197024;28;20211;-58
2022/03/05 08:16:11;;;;;;;20.77;17.83;;;3.50;96.70;;;4.77;55.77;98252.50;5199408;28;20198;-59
2022/03/05 08:18:44;;;;;;;21.53;17.90;;;3.90;96.20;;;4.81;55.28;98246.97;5200559;28;20217;-59
2022/03/05 08:21:17;;;;;;;21.80;17.83;;;4.20;95.50;;;5.10;55.56;98243.47;5201695;28;20206;-59
2022/03/05 08:23:50;;;;;;;20.30;18.00;;;4.40;95.40;;;5.47;53.73;98246.56;5199175;28;20202;-59
2022/03/05 08:26:24;;;;;;;22.07;18.33;;;4.90;94.00;;;5.33;54.41;98237.81;5202476;28;20682;-58
2022/03/05 08:28:57;;;;;;;21.40;17.57;;;4.70;94.60;;;5.61;54.13;98236.78;5202410;28;20218;-58
2022/03/05 08:31:32;;;;;;;20.53;17.60;;;4.90;94.50;;;5.78;53.44;98238.16;5201331;28;20200;-58
2022/03/05 08:34:05;;;;;;;22.67;19.27;;;5.10;94.10;;;6.03;51.45;98238.50;5202580;28;20451;-60
2022/03/05 08:36:39;;;;;;;24.17;21.50;;;5.40;93.00;;;5.85;52.09;98242.97;5203081;28;20196;-60
2022/03/05 08:39:12;;;;;;;23.80;19.20;;;5.40;92.60;;;5.92;51.68;98233.31;5203527;28;20225;-57
2022/03/05 08:41:45;;;;;;;22.13;18.43;;;5.40;92.60;;;5.97;51.02;98227.00;5205316;28;20204;-59
2022/03/05 08:44:18;;;;;;;23.03;18.07;;;5.50;92.40;;;5.53;51.66;98217.53;5200310;28;20204;-59
2022/03/05 08:46:52;;;;;;;22.20;17.83;;;5.10;92.00;;;5.97;51.31;98227.00;5202667;28;20697;-60
2022/03/05 08:49:26;;;;;;;20.97;18.63;;;5.30;92.50;;;6.17;51.21;98210.81;5202176;28;20230;-57
2022/03/05 08:51:59;;;;;;;21.43;18.07;;;5.60;92.00;;;6.32;50.93;98219.66;5201438;28;20199;-57
2022/03/05 08:54:32;;;;;;;20.37;18.17;;;5.70;92.30;;;6.51;50.01;98214.38;5205535;28;20203;-58
2022/03/05 08:57:06;;;;;;;20.57;16.83;;;6.00;91.50;;;6.58;48.59;98218.28;5200446;28;20202;-60
2022/03/05 08:59:40;;;;;;;21.77;17.80;;;6.00;90.60;;;6.26;48.88;98220.03;5203835;28;20208;-59
2022/03/05 09:02:15;;;;;;;19.67;16.43;;;5.70;90.80;;;6.31;48.34;98213.69;5194972;28;20201;-58
2022/03/05 09:04:48;;;;;;;17.67;15.63;;;5.60;90.10;;;6.17;47.76;98214.25;5200983;28;20200;-59
2022/03/05 09:07:21;;;;;;;20.73;16.87;;;5.50;89.50;;;5.82;48.45;98222.41;5204979;28;20208;-58
2022/03/05 09:09:54;;;;;;;18.37;16.20;;;5.30;90.10;;;5.78;49.04;98216.97;5204075;28;20198;-59
2022/03/05 09:12:27;;;;;;;18.33;15.97;;;5.20;90.30;;;5.96;49.34;98212.53;5205709;28;20649;-58
2022/03/05 09:15:00;;;;;;;16.67;14.90;;;5.40;90.60;;;5.83;47.96;98216.56;5205078;28;20419;-58
2022/03/05 09:17:35;;;;;;;16.87;14.13;;;5.40;89.00;;;6.16;47.46;98215.03;5200763;28;20218;-59
2022/03/05 09:20:10;;;;;;;18.97;14.70;;;5.70;89.00;;;6.33;47.14;98190.97;5202780;28;20201;-58
2022/03/05 09:22:43;;;;;;;17.10;15.17;;;5.80;88.20;;;6.39;46.23;98194.00;5198726;28;20201;-57
2022/03/05 09:25:16;;;;;;;17.27;14.83;;;6.10;86.40;;;6.50;45.96;98203.34;5202860;28;20574;-58
2022/03/05 09:27:49;;;;;;;17.73;15.43;;;6.10;86.50;;;6.73;45.31;98197.50;5205543;28;20598;-59
2022/03/05 09:30:22;;;;;;;16.80;14.73;;;6.30;86.10;;;6.45;45.77;98194.47;5200840;28;20208;-58
2022/03/05 09:32:57;;;;;;;20.53;16.33;;;6.10;86.40;;;6.52;46.41;98194.19;5201924;28;20212;-57
2022/03/05 09:35:30;;;;;;;18.73;15.00;;;6.00;87.10;;;6.51;47.41;98184.78;5199472;28;20572;-57
2022/03/05 09:38:03;;;;;;;18.93;16.93;;;6.00;87.90;;;6.71;45.74;98188.88;5206417;28;20264;-58
2022/03/05 09:40:36;;;;;;;17.63;15.40;;;6.10;86.80;;;6.51;45.91;98186.44;5206109;28;20303;-59
2022/03/05 09:43:09;;;;;;;18.93;15.40;;;6.10;86.50;;;6.64;45.61;98186.63;5205025;28;20201;-55
2022/03/05 09:45:45;;;;;;;17.83;16.00;;;6.20;86.10;;;6.89;46.16;98181.75;5206200;28;20208;-60
2022/03/05 09:48:19;;;;;;;17.13;15.13;;;6.40;86.10;;;6.81;45.32;98189.56;5203827;28;20243;-59
2022/03/05 09:50:53;;;;;;;14.13;12.73;;;6.30;86.20;;;6.86;43.08;98188.28;5201761;28;20261;-59
2022/03/05 09:53:29;;;;;;;15.17;12.23;;;6.40;81.90;;;7.08;41.24;98185.72;5204713;28;20563;-58
2022/03/05 09:56:02;;;;;;;13.00;11.70;;;6.70;79.20;;;7.25;41.21;98184.44;5204367;28;20204;-58
2022/03/05 09:58:53;;;;;;;13.33;11.83;;;7.00;78.50;;;7.14;41.35;98194.69;5200655;28;20748;-59
2022/03/05 10:01:26;;;;;;;14.57;13.03;;;6.80;78.90;;;7.19;41.29;98190.84;5202561;28;20220;-58
2022/03/05 10:04:02;;;;;;;15.20;12.53;;;6.80;79.10;;;7.17;39.55;98187.28;5201994;28;20201;-59
2022/03/05 10:06:35;;;;;;;12.47;11.17;;;6.70;76.80;;;7.38;40.88;98176.94;5203776;28;20562;-59
2022/03/05 10:09:22;;;;;;;14.00;12.60;;;6.90;77.80;;;7.76;39.40;98186.53;5203439;28;20222;-59
2022/03/05 10:11:55;;;;;;;13.67;12.07;;;7.30;76.00;;;7.42;39.14;98189.13;5205404;28;20686;-59
2022/03/05 10:14:29;;;;;;;13.33;11.87;;;6.90;75.20;;;6.97;39.46;98187.44;5205762;28;20704;-56
2022/03/05 10:17:04;;;;;;;15.07;12.23;;;6.50;75.60;;;7.02;39.13;98186.13;5201166;28;20683;-59
2022/03/05 10:19:38;;;;;;;13.47;12.07;;;6.60;76.00;;;6.98;39.43;98195.19;5201493;28;20255;-59
2022/03/05 10:22:12;;;;;;;13.20;11.70;;;6.50;75.70;;;7.18;39.31;98180.53;5205453;28;20194;-60
2022/03/05 10:24:45;;;;;;;12.60;11.30;;;6.80;75.70;;;7.48;38.75;98188.72;5203935;28;20198;-59
2022/03/05 10:27:18;;;;;;;12.17;10.87;;;7.10;74.10;;;7.31;37.78;98190.88;5204991;28;20201;-59
2022/03/05 10:29:57;;;;;;;17.30;12.50;;;6.90;72.60;;;7.45;38.99;98189.34;5205069;28;20224;-61
2022/03/05 10:32:30;;;;;;;44.73;24.23;;;7.00;74.60;;;7.44;38.77;98193.56;5203987;28;20566;-60
2022/03/05 10:35:06;;;;;;;25.73;15.33;;;7.10;74.30;;;7.17;36.66;98194.91;5202766;28;20221;-60
2022/03/05 10:37:39;;;;;;;15.07;10.77;;;6.90;71.20;;;7.05;36.57;98195.66;5203815;28;20250;-61
2022/03/05 10:40:14;;;;;;;32.93;20.43;;;6.60;70.50;;;7.01;37.78;98192.00;5203581;28;20208;-60
2022/03/05 10:42:49;;;;;;;16.43;13.03;;;6.60;72.60;;;7.15;37.67;98178.69;5203790;28;20205;-61